sensor_id;sensor_type;location;lat;lon;timestamp;pressure;altitude;pressure_sealevel;temperature;humidity
63194;BME280;49289;51.670;5.624;2023-02-20T00:00:41;102733.66;;;11.84;59.95
63194;BME280;49289;51.670;5.624;2023-02-20T00:02:31;102732.34;;;11.58;61.09
63194;BME280;49289;51.670;5.624;2023-02-20T00:04:18;102754.19;;;12.16;59.83
63194;BME280;49289;51.670;5.624;2023-02-20T00:06:05;102751.36;;;12.05;60.17
63194;BME280;49289;51.670;5.624;2023-02-20T00:07:55;102747.11;;;12.24;59.42
63194;BME280;49289;51.670;5.624;2023-02-20T00:09:43;102727.04;;;11.90;59.72
63194;BME280;49289;51.670;5.624;2023-02-20T00:11:18;102748.86;;;12.03;59.95
63194;BME280;49289;51.670;5.624;2023-02-20T00:13:06;102729.13;;;12.20;59.15
63194;BME280;49289;51.670;5.624;2023-02-20T00:14:53;102737.77;;;12.02;59.27
63194;BME280;49289;51.670;5.624;2023-02-20T00:16:43;102730.91;;;12.17;59.06
63194;BME280;49289;51.670;5.624;2023-02-20T00:18:30;102752.86;;;12.49;58.73
63194;BME280;49289;51.670;5.624;2023-02-20T00:20:03;102757.72;;;12.14;59.42
63194;BME280;49289;51.670;5.624;2023-02-20T00:21:56;102754.81;;;11.82;60.30
63194;BME280;49289;51.670;5.624;2023-02-20T00:23:45;102653.06;;;11.39;59.91
63194;BME280;49289;51.670;5.624;2023-02-20T00:25:20;102752.30;;;12.28;59.33
63194;BME280;49289;51.670;5.624;2023-02-20T00:27:08;102733.27;;;12.50;58.45
63194;BME280;49289;51.670;5.624;2023-02-20T00:28:56;102725.73;;;12.43;58.29
63194;BME280;49289;51.670;5.624;2023-02-20T00:30:43;102719.49;;;12.61;57.90
63194;BME280;49289;51.670;5.624;2023-02-20T00:32:30;102714.37;;;12.85;57.38
63194;BME280;49289;51.670;5.624;2023-02-20T00:34:17;102728.86;;;12.47;57.96
63194;BME280;49289;51.670;5.624;2023-02-20T00:36:04;102726.33;;;12.18;59.23
63194;BME280;49289;51.670;5.624;2023-02-20T00:37:52;102725.02;;;12.22;59.03
63194;BME280;49289;51.670;5.624;2023-02-20T00:39:38;102718.34;;;12.07;60.03
63194;BME280;49289;51.670;5.624;2023-02-20T00:41:25;102698.50;;;12.01;59.70
63194;BME280;49289;51.670;5.624;2023-02-20T00:43:12;102706.44;;;11.88;60.34
63194;BME280;49289;51.670;5.624;2023-02-20T00:45:00;102678.83;;;12.33;58.95
63194;BME280;49289;51.670;5.624;2023-02-20T00:46:48;102694.56;;;11.94;59.72
63194;BME280;49289;51.670;5.624;2023-02-20T00:48:36;102667.73;;;12.22;59.14
63194;BME280;49289;51.670;5.624;2023-02-20T00:50:25;102670.86;;;12.17;59.25
63194;BME280;49289;51.670;5.624;2023-02-20T00:52:12;102651.64;;;12.28;58.99
63194;BME280;49289;51.670;5.624;2023-02-20T00:53:59;102672.06;;;12.47;58.31
63194;BME280;49289;51.670;5.624;2023-02-20T00:55:47;102656.30;;;11.76;60.23
63194;BME280;49289;51.670;5.624;2023-02-20T00:57:34;102674.49;;;11.58;61.27
63194;BME280;49289;51.670;5.624;2023-02-20T00:59:21;102676.91;;;12.03;60.51
63194;BME280;49289;51.670;5.624;2023-02-20T01:01:08;102680.38;;;12.45;59.39
63194;BME280;49289;51.670;5.624;2023-02-20T01:02:55;102685.48;;;12.31;59.48
63194;BME280;49289;51.670;5.624;2023-02-20T01:04:42;102667.67;;;11.96;60.15
63194;BME280;49289;51.670;5.624;2023-02-20T01:06:29;102669.52;;;11.93;59.55
63194;BME280;49289;51.670;5.624;2023-02-20T01:08:17;102671.41;;;11.73;60.76
63194;BME280;49289;51.670;5.624;2023-02-20T01:10:05;102674.63;;;11.86;60.63
63194;BME280;49289;51.670;5.624;2023-02-20T01:11:53;102673.67;;;11.72;61.22
63194;BME280;49289;51.670;5.624;2023-02-20T01:13:41;102686.29;;;11.48;62.03
63194;BME280;49289;51.670;5.624;2023-02-20T01:15:29;102683.42;;;11.45;62.29
63194;BME280;49289;51.670;5.624;2023-02-20T01:17:17;102687.68;;;11.94;60.83
63194;BME280;49289;51.670;5.624;2023-02-20T01:19:05;102688.08;;;12.48;58.96
63194;BME280;49289;51.670;5.624;2023-02-20T01:20:53;102685.73;;;11.50;61.57
63194;BME280;49289;51.670;5.624;2023-02-20T01:22:41;102670.31;;;11.78;61.02
63194;BME280;49289;51.670;5.624;2023-02-20T01:24:29;102670.48;;;11.68;61.11
63194;BME280;49289;51.670;5.624;2023-02-20T01:26:16;102669.07;;;11.70;60.87
63194;BME280;49289;51.670;5.624;2023-02-20T01:28:03;102685.64;;;11.84;60.93
63194;BME280;49289;51.670;5.624;2023-02-20T01:29:50;102677.25;;;11.57;61.16
63194;BME280;49289;51.670;5.624;2023-02-20T01:31:37;102676.41;;;11.74;61.15
63194;BME280;49289;51.670;5.624;2023-02-20T01:33:24;102647.77;;;11.82;60.81
63194;BME280;49289;51.670;5.624;2023-02-20T01:35:13;102660.13;;;11.96;60.26
63194;BME280;49289;51.670;5.624;2023-02-20T01:37:01;102638.46;;;11.83;60.32
63194;BME280;49289;51.670;5.624;2023-02-20T01:38:49;102638.06;;;12.07;60.22
63194;BME280;49289;51.670;5.624;2023-02-20T01:40:37;102632.89;;;11.94;60.16
63194;BME280;49289;51.670;5.624;2023-02-20T01:42:26;102627.19;;;11.72;60.69
63194;BME280;49289;51.670;5.624;2023-02-20T01:44:16;102648.21;;;11.61;61.46
63194;BME280;49289;51.670;5.624;2023-02-20T01:48:06;102611.77;;;11.24;62.91
63194;BME280;49289;51.670;5.624;2023-02-20T01:49:54;102605.36;;;11.29;62.85
63194;BME280;49289;51.670;5.624;2023-02-20T01:51:43;102598.69;;;11.53;62.22
63194;BME280;49289;51.670;5.624;2023-02-20T01:53:29;102600.56;;;10.86;64.01
63194;BME280;49289;51.670;5.624;2023-02-20T01:55:18;102596.35;;;11.43;62.63
63194;BME280;49289;51.670;5.624;2023-02-20T01:57:05;102571.25;;;11.03;62.88
63194;BME280;49289;51.670;5.624;2023-02-20T01:58:53;102591.39;;;10.84;64.37
63194;BME280;49289;51.670;5.624;2023-02-20T02:00:41;102571.27;;;11.41;62.77
63194;BME280;49289;51.670;5.624;2023-02-20T02:02:32;102560.31;;;11.41;62.58
63194;BME280;49289;51.670;5.624;2023-02-20T02:04:19;102567.68;;;11.38;62.96
63194;BME280;49289;51.670;5.624;2023-02-20T02:06:08;102541.61;;;10.99;63.97
63194;BME280;49289;51.670;5.624;2023-02-20T02:07:56;102546.64;;;11.01;63.75
63194;BME280;49289;51.670;5.624;2023-02-20T02:09:46;102555.32;;;11.38;62.69
63194;BME280;49289;51.670;5.624;2023-02-20T02:12:32;102558.91;;;11.16;62.96
63194;BME280;49289;51.670;5.624;2023-02-20T02:14:19;102563.64;;;11.42;62.83
63194;BME280;49289;51.670;5.624;2023-02-20T02:16:10;102577.66;;;11.64;61.85
63194;BME280;49289;51.670;5.624;2023-02-20T02:18:06;102556.56;;;11.50;62.43
63194;BME280;49289;51.670;5.624;2023-02-20T02:20:16;102579.84;;;11.24;62.70
63194;BME280;49289;51.670;5.624;2023-02-20T02:22:40;102557.58;;;11.08;63.55
63194;BME280;49289;51.670;5.624;2023-02-20T02:24:42;102551.87;;;10.83;64.37
63194;BME280;49289;51.670;5.624;2023-02-20T02:26:36;102565.75;;;11.61;62.68
63194;BME280;49289;51.670;5.624;2023-02-20T02:28:53;102547.48;;;11.47;62.22
63194;BME280;49289;51.670;5.624;2023-02-20T02:33:12;102561.83;;;11.30;63.18
63194;BME280;49289;51.670;5.624;2023-02-20T02:35:15;102541.34;;;10.90;64.32
63194;BME280;49289;51.670;5.624;2023-02-20T02:37:08;102545.41;;;10.75;65.24
63194;BME280;49289;51.670;5.624;2023-02-20T02:38:58;102541.83;;;10.72;65.70
63194;BME280;49289;51.670;5.624;2023-02-20T02:40:46;102557.48;;;10.83;65.30
63194;BME280;49289;51.670;5.624;2023-02-20T02:42:33;102543.33;;;10.81;65.84
63194;BME280;49289;51.670;5.624;2023-02-20T02:44:20;102559.00;;;11.09;65.03
63194;BME280;49289;51.670;5.624;2023-02-20T02:46:08;102532.40;;;10.54;66.02
63194;BME280;49289;51.670;5.624;2023-02-20T02:47:58;102538.60;;;10.87;65.51
63194;BME280;49289;51.670;5.624;2023-02-20T02:49:47;102559.12;;;10.97;66.17
63194;BME280;49289;51.670;5.624;2023-02-20T02:51:35;102533.17;;;11.22;64.91
63194;BME280;49289;51.670;5.624;2023-02-20T02:53:22;102549.73;;;11.32;64.72
63194;BME280;49289;51.670;5.624;2023-02-20T02:55:11;102554.69;;;11.03;65.44
63194;BME280;49289;51.670;5.624;2023-02-20T02:57:14;102550.28;;;10.79;66.06
63194;BME280;49289;51.670;5.624;2023-02-20T02:58:44;102534.63;;;10.66;66.91
63194;BME280;49289;51.670;5.624;2023-02-20T03:00:32;102556.90;;;11.66;64.56
63194;BME280;49289;51.670;5.624;2023-02-20T03:02:18;102554.96;;;11.23;65.12
63194;BME280;49289;51.670;5.624;2023-02-20T03:04:06;102551.40;;;10.99;66.61
63194;BME280;49289;51.670;5.624;2023-02-20T03:05:55;102546.14;;;10.77;67.13
63194;BME280;49289;51.670;5.624;2023-02-20T03:07:42;102544.77;;;11.03;66.35
63194;BME280;49289;51.670;5.624;2023-02-20T03:09:29;102547.59;;;11.40;65.49
63194;BME280;49289;51.670;5.624;2023-02-20T03:11:18;102547.63;;;11.04;67.01
63194;BME280;49289;51.670;5.624;2023-02-20T03:13:06;102525.88;;;11.13;65.71
63194;BME280;49289;51.670;5.624;2023-02-20T03:14:55;102524.03;;;11.12;66.29
63194;BME280;49289;51.670;5.624;2023-02-20T03:16:45;102549.08;;;11.20;66.42
63194;BME280;49289;51.670;5.624;2023-02-20T03:18:35;102537.27;;;10.95;66.95
63194;BME280;49289;51.670;5.624;2023-02-20T03:20:21;102514.48;;;11.30;65.88
63194;BME280;49289;51.670;5.624;2023-02-20T03:22:11;102515.91;;;11.10;66.23
63194;BME280;49289;51.670;5.624;2023-02-20T03:23:58;102530.41;;;11.23;66.00
63194;BME280;49289;51.670;5.624;2023-02-20T03:25:47;102506.91;;;11.02;66.58
63194;BME280;49289;51.670;5.624;2023-02-20T03:27:36;102528.99;;;11.23;66.91
63194;BME280;49289;51.670;5.624;2023-02-20T03:29:23;102525.54;;;11.71;65.13
63194;BME280;49289;51.670;5.624;2023-02-20T03:31:11;102518.48;;;11.75;64.71
63194;BME280;49289;51.670;5.624;2023-02-20T03:33:00;102499.08;;;11.29;65.85
63194;BME280;49289;51.670;5.624;2023-02-20T03:34:46;102501.91;;;11.19;66.09
63194;BME280;49289;51.670;5.624;2023-02-20T03:36:36;102492.62;;;11.31;65.79
63194;BME280;49289;51.670;5.624;2023-02-20T03:38:22;102466.64;;;11.18;66.17
63194;BME280;49289;51.670;5.624;2023-02-20T03:40:10;102518.36;;;11.72;65.39
63194;BME280;49289;51.670;5.624;2023-02-20T03:41:57;102516.23;;;11.69;64.77
63194;BME280;49289;51.670;5.624;2023-02-20T03:43:44;102516.95;;;11.81;64.83
63194;BME280;49289;51.670;5.624;2023-02-20T03:45:31;102512.94;;;11.71;65.04
63194;BME280;49289;51.670;5.624;2023-02-20T03:47:18;102494.25;;;12.08;64.06
63194;BME280;49289;51.670;5.624;2023-02-20T03:49:07;102514.27;;;12.09;63.72
63194;BME280;49289;51.670;5.624;2023-02-20T03:50:54;102512.45;;;12.09;63.70
63194;BME280;49289;51.670;5.624;2023-02-20T03:52:41;102517.94;;;12.25;63.16
63194;BME280;49289;51.670;5.624;2023-02-20T03:54:28;102521.22;;;11.59;65.00
63194;BME280;49289;51.670;5.624;2023-02-20T03:56:16;102512.28;;;11.84;64.92
63194;BME280;49289;51.670;5.624;2023-02-20T03:58:04;102509.25;;;11.44;65.89
63194;BME280;49289;51.670;5.624;2023-02-20T03:59:52;102519.42;;;11.30;67.04
63194;BME280;49289;51.670;5.624;2023-02-20T04:01:39;102518.69;;;11.77;65.73
63194;BME280;49289;51.670;5.624;2023-02-20T04:03:27;102518.63;;;11.86;65.45
63194;BME280;49289;51.670;5.624;2023-02-20T04:05:15;102501.16;;;11.47;65.72
63194;BME280;49289;51.670;5.624;2023-02-20T04:07:03;102523.25;;;11.46;66.83
63194;BME280;49289;51.670;5.624;2023-02-20T04:08:52;102505.28;;;11.81;64.99
63194;BME280;49289;51.670;5.624;2023-02-20T04:10:39;102509.10;;;11.68;65.61
63194;BME280;49289;51.670;5.624;2023-02-20T04:12:26;102506.28;;;11.18;67.10
63194;BME280;49289;51.670;5.624;2023-02-20T04:14:14;102508.10;;;11.40;66.89
63194;BME280;49289;51.670;5.624;2023-02-20T04:16:02;102532.22;;;11.82;65.78
63194;BME280;49289;51.670;5.624;2023-02-20T04:17:50;102524.93;;;11.89;65.55
63194;BME280;49289;51.670;5.624;2023-02-20T04:19:38;102529.41;;;11.87;66.19
63194;BME280;49289;51.670;5.624;2023-02-20T04:21:27;102505.52;;;12.05;65.20
63194;BME280;49289;51.670;5.624;2023-02-20T04:23:18;102524.63;;;12.51;64.01
63194;BME280;49289;51.670;5.624;2023-02-20T04:25:05;102520.08;;;12.26;64.43
63194;BME280;49289;51.670;5.624;2023-02-20T04:26:52;102532.47;;;12.44;64.04
63194;BME280;49289;51.670;5.624;2023-02-20T04:28:40;102505.21;;;11.40;66.96
63194;BME280;49289;51.670;5.624;2023-02-20T04:30:28;102509.73;;;11.46;67.35
63194;BME280;49289;51.670;5.624;2023-02-20T04:32:16;102528.40;;;11.57;67.13
63194;BME280;49289;51.670;5.624;2023-02-20T04:34:03;102527.44;;;11.57;67.46
63194;BME280;49289;51.670;5.624;2023-02-20T04:35:50;102523.96;;;11.94;66.38
63194;BME280;49289;51.670;5.624;2023-02-20T04:37:37;102521.00;;;11.72;66.92
63194;BME280;49289;51.670;5.624;2023-02-20T04:39:24;102504.62;;;11.92;65.95
63194;BME280;49289;51.670;5.624;2023-02-20T04:41:11;102508.31;;;11.52;66.50
63194;BME280;49289;51.670;5.624;2023-02-20T04:42:58;102510.44;;;11.43;67.28
63194;BME280;49289;51.670;5.624;2023-02-20T04:44:45;102511.95;;;11.82;66.28
63194;BME280;49289;51.670;5.624;2023-02-20T04:46:32;102532.34;;;11.33;67.71
63194;BME280;49289;51.670;5.624;2023-02-20T04:48:19;102514.21;;;11.46;68.15
63194;BME280;49289;51.670;5.624;2023-02-20T04:50:06;102513.80;;;12.11;65.68
63194;BME280;49289;51.670;5.624;2023-02-20T04:51:53;102528.66;;;12.07;66.01
63194;BME280;49289;51.670;5.624;2023-02-20T04:53:41;102506.12;;;12.03;65.76
63194;BME280;49289;51.670;5.624;2023-02-20T04:55:28;102508.55;;;11.88;66.10
63194;BME280;49289;51.670;5.624;2023-02-20T04:57:17;102507.43;;;11.96;65.72
63194;BME280;49289;51.670;5.624;2023-02-20T04:59:05;102508.04;;;12.17;65.21
63194;BME280;49289;51.670;5.624;2023-02-20T05:00:52;102524.69;;;12.25;64.54
63194;BME280;49289;51.670;5.624;2023-02-20T05:02:42;102528.52;;;11.87;66.22
63194;BME280;49289;51.670;5.624;2023-02-20T05:04:30;102512.20;;;11.45;67.30
63194;BME280;49289;51.670;5.624;2023-02-20T05:06:18;102524.75;;;12.03;66.02
63194;BME280;49289;51.670;5.624;2023-02-20T05:08:06;102520.78;;;12.15;65.82
63194;BME280;49289;51.670;5.624;2023-02-20T05:09:54;102524.23;;;11.90;65.98
63194;BME280;49289;51.670;5.624;2023-02-20T05:11:41;102520.46;;;12.22;65.12
63194;BME280;49289;51.670;5.624;2023-02-20T05:13:29;102530.27;;;11.86;65.90
63194;BME280;49289;51.670;5.624;2023-02-20T05:15:18;102503.30;;;12.00;65.23
63194;BME280;49289;51.670;5.624;2023-02-20T05:17:05;102506.59;;;11.83;65.20
63194;BME280;49289;51.670;5.624;2023-02-20T05:18:52;102512.67;;;12.20;64.87
63194;BME280;49289;51.670;5.624;2023-02-20T05:20:39;102518.23;;;11.70;66.05
63194;BME280;49289;51.670;5.624;2023-02-20T05:22:27;102525.70;;;12.04;66.07
63194;BME280;49289;51.670;5.624;2023-02-20T05:24:16;102499.06;;;11.99;65.35
63194;BME280;49289;51.670;5.624;2023-02-20T05:26:04;102523.17;;;11.56;66.97
63194;BME280;49289;51.670;5.624;2023-02-20T05:27:51;102517.82;;;11.99;66.22
63194;BME280;49289;51.670;5.624;2023-02-20T05:29:38;102497.74;;;11.99;65.08
63194;BME280;49289;51.670;5.624;2023-02-20T05:31:25;102515.25;;;11.91;66.02
63194;BME280;49289;51.670;5.624;2023-02-20T05:33:12;102522.48;;;11.82;66.07
63194;BME280;49289;51.670;5.624;2023-02-20T05:34:59;102505.22;;;11.54;66.77
63194;BME280;49289;51.670;5.624;2023-02-20T05:36:47;102500.69;;;11.67;66.51
63194;BME280;49289;51.670;5.624;2023-02-20T05:38:35;102518.84;;;12.29;64.65
63194;BME280;49289;51.670;5.624;2023-02-20T05:40:24;102501.09;;;12.02;64.92
63194;BME280;49289;51.670;5.624;2023-02-20T05:42:12;102520.88;;;12.23;64.98
63194;BME280;49289;51.670;5.624;2023-02-20T05:43:59;102517.08;;;12.46;64.29
63194;BME280;49289;51.670;5.624;2023-02-20T05:45:46;102520.31;;;12.45;64.22
63194;BME280;49289;51.670;5.624;2023-02-20T05:47:34;102500.39;;;12.11;64.68
63194;BME280;49289;51.670;5.624;2023-02-20T05:49:21;102500.72;;;12.18;64.25
63194;BME280;49289;51.670;5.624;2023-02-20T05:51:08;102498.16;;;12.19;64.47
63194;BME280;49289;51.670;5.624;2023-02-20T05:52:55;102517.21;;;12.77;63.23
63194;BME280;49289;51.670;5.624;2023-02-20T05:54:44;102507.41;;;12.60;63.52
63194;BME280;49289;51.670;5.624;2023-02-20T05:56:29;102496.66;;;12.75;62.86
63194;BME280;49289;51.670;5.624;2023-02-20T05:58:16;102507.39;;;12.46;63.60
63194;BME280;49289;51.670;5.624;2023-02-20T06:00:03;102508.16;;;12.19;64.10
63194;BME280;49289;51.670;5.624;2023-02-20T06:01:54;102515.07;;;12.67;63.64
63194;BME280;49289;51.670;5.624;2023-02-20T06:03:39;102492.59;;;12.85;62.30
63194;BME280;49289;51.670;5.624;2023-02-20T06:05:28;102512.89;;;12.35;63.89
63194;BME280;49289;51.670;5.624;2023-02-20T06:07:16;102501.03;;;12.15;64.63
63194;BME280;49289;51.670;5.624;2023-02-20T06:09:04;102497.72;;;11.81;65.14
63194;BME280;49289;51.670;5.624;2023-02-20T06:10:52;102497.86;;;11.74;65.35
63194;BME280;49289;51.670;5.624;2023-02-20T06:12:39;102511.52;;;12.39;63.61
63194;BME280;49289;51.670;5.624;2023-02-20T06:14:26;102506.61;;;12.45;63.63
63194;BME280;49289;51.670;5.624;2023-02-20T06:16:20;102510.83;;;12.65;62.94
63194;BME280;49289;51.670;5.624;2023-02-20T06:18:00;102500.06;;;12.33;63.61
63194;BME280;49289;51.670;5.624;2023-02-20T06:19:47;102510.48;;;12.63;62.70
63194;BME280;49289;51.670;5.624;2023-02-20T06:21:35;102493.16;;;12.94;61.90
63194;BME280;49289;51.670;5.624;2023-02-20T06:23:23;102511.32;;;12.56;62.89
63194;BME280;49289;51.670;5.624;2023-02-20T06:25:12;102497.12;;;12.28;63.51
63194;BME280;49289;51.670;5.624;2023-02-20T06:27:00;102496.56;;;12.28;63.59
63194;BME280;49289;51.670;5.624;2023-02-20T06:28:48;102516.20;;;12.37;63.86
63194;BME280;49289;51.670;5.624;2023-02-20T06:30:35;102522.59;;;12.10;64.00
63194;BME280;49289;51.670;5.624;2023-02-20T06:32:22;102511.19;;;12.55;63.73
63194;BME280;49289;51.670;5.624;2023-02-20T06:34:09;102523.37;;;12.57;63.09
63194;BME280;49289;51.670;5.624;2023-02-20T06:35:56;102503.75;;;12.18;64.11
63194;BME280;49289;51.670;5.624;2023-02-20T06:37:43;102527.06;;;12.56;63.52
63194;BME280;49289;51.670;5.624;2023-02-20T06:39:30;102521.45;;;12.13;64.29
63194;BME280;49289;51.670;5.624;2023-02-20T06:41:17;102505.17;;;12.30;63.50
63194;BME280;49289;51.670;5.624;2023-02-20T06:43:04;102511.19;;;11.96;64.88
63194;BME280;49289;51.670;5.624;2023-02-20T06:44:51;102498.40;;;11.83;64.42
63194;BME280;49289;51.670;5.624;2023-02-20T06:46:38;102491.56;;;12.21;64.18
63194;BME280;49289;51.670;5.624;2023-02-20T06:48:26;102508.07;;;12.30;63.67
63194;BME280;49289;51.670;5.624;2023-02-20T06:50:15;102520.94;;;12.27;63.96
63194;BME280;49289;51.670;5.624;2023-02-20T06:52:04;102515.88;;;12.17;64.62
63194;BME280;49289;51.670;5.624;2023-02-20T06:53:52;102498.08;;;12.13;63.66
63194;BME280;49289;51.670;5.624;2023-02-20T06:55:39;102513.31;;;12.87;62.02
63194;BME280;49289;51.670;5.624;2023-02-20T06:57:26;102498.50;;;12.46;62.52
63194;BME280;49289;51.670;5.624;2023-02-20T06:59:13;102503.02;;;11.96;64.50
63194;BME280;49289;51.670;5.624;2023-02-20T07:01:00;102478.57;;;12.30;63.32
63194;BME280;49289;51.670;5.624;2023-02-20T07:02:47;102499.47;;;12.19;63.88
63194;BME280;49289;51.670;5.624;2023-02-20T07:04:34;102497.62;;;12.20;63.86
63194;BME280;49289;51.670;5.624;2023-02-20T07:06:21;102513.03;;;12.03;64.62
63194;BME280;49289;51.670;5.624;2023-02-20T07:08:08;102514.86;;;12.28;63.55
63194;BME280;49289;51.670;5.624;2023-02-20T07:09:57;102521.00;;;11.92;64.95
63194;BME280;49289;51.670;5.624;2023-02-20T07:11:44;102519.94;;;11.61;65.76
63194;BME280;49289;51.670;5.624;2023-02-20T07:13:31;102515.41;;;11.92;65.10
63194;BME280;49289;51.670;5.624;2023-02-20T07:15:19;102516.34;;;12.14;64.53
63194;BME280;49289;51.670;5.624;2023-02-20T07:17:07;102503.94;;;12.06;64.46
63194;BME280;49289;51.670;5.624;2023-02-20T07:18:54;102515.05;;;12.89;62.29
63194;BME280;49289;51.670;5.624;2023-02-20T07:20:41;102501.96;;;12.27;63.12
63194;BME280;49289;51.670;5.624;2023-02-20T07:22:28;102513.63;;;12.75;62.67
63194;BME280;49289;51.670;5.624;2023-02-20T07:24:16;102519.44;;;12.42;63.32
63194;BME280;49289;51.670;5.624;2023-02-20T07:26:03;102520.50;;;12.45;63.20
63194;BME280;49289;51.670;5.624;2023-02-20T07:27:52;102496.77;;;12.03;63.85
63194;BME280;49289;51.670;5.624;2023-02-20T07:29:40;102505.97;;;12.41;63.47
63194;BME280;49289;51.670;5.624;2023-02-20T07:31:28;102515.42;;;12.41;63.09
63194;BME280;49289;51.670;5.624;2023-02-20T07:33:16;102491.72;;;12.46;62.83
63194;BME280;49289;51.670;5.624;2023-02-20T07:35:04;102495.23;;;11.85;64.98
63194;BME280;49289;51.670;5.624;2023-02-20T07:36:53;102501.50;;;12.13;64.03
63194;BME280;49289;51.670;5.624;2023-02-20T07:38:42;102517.64;;;12.12;64.41
63194;BME280;49289;51.670;5.624;2023-02-20T07:40:30;102511.46;;;12.54;63.36
63194;BME280;49289;51.670;5.624;2023-02-20T07:42:17;102504.27;;;12.46;63.07
63194;BME280;49289;51.670;5.624;2023-02-20T07:44:04;102505.27;;;11.95;64.18
63194;BME280;49289;51.670;5.624;2023-02-20T07:45:51;102512.59;;;11.96;64.48
63194;BME280;49289;51.670;5.624;2023-02-20T07:47:38;102524.23;;;12.32;63.44
63194;BME280;49289;51.670;5.624;2023-02-20T07:49:25;102528.49;;;12.22;64.39
63194;BME280;49289;51.670;5.624;2023-02-20T07:51:12;102527.77;;;12.35;64.06
63194;BME280;49289;51.670;5.624;2023-02-20T07:52:59;102519.47;;;12.06;65.24
63194;BME280;49289;51.670;5.624;2023-02-20T07:54:46;102525.91;;;12.46;64.08
63194;BME280;49289;51.670;5.624;2023-02-20T07:56:33;102524.97;;;12.54;63.55
63194;BME280;49289;51.670;5.624;2023-02-20T07:58:20;102512.91;;;12.37;63.98
63194;BME280;49289;51.670;5.624;2023-02-20T08:00:07;102517.42;;;12.17;64.39
63194;BME280;49289;51.670;5.624;2023-02-20T08:01:56;102507.81;;;12.52;63.86
63194;BME280;49289;51.670;5.624;2023-02-20T08:03:44;102506.91;;;12.64;63.19
63194;BME280;49289;51.670;5.624;2023-02-20T08:05:32;102489.53;;;12.63;62.96
63194;BME280;49289;51.670;5.624;2023-02-20T08:07:20;102493.70;;;12.04;64.09
63194;BME280;49289;51.670;5.624;2023-02-20T08:09:08;102508.88;;;12.33;64.31
63194;BME280;49289;51.670;5.624;2023-02-20T08:10:55;102492.22;;;12.39;63.72
63194;BME280;49289;51.670;5.624;2023-02-20T08:12:42;102490.81;;;12.48;63.19
63194;BME280;49289;51.670;5.624;2023-02-20T08:14:29;102490.89;;;12.80;62.36
63194;BME280;49289;51.670;5.624;2023-02-20T08:16:17;102496.72;;;12.80;62.11
63194;BME280;49289;51.670;5.624;2023-02-20T08:18:05;102501.37;;;13.09;62.04
63194;BME280;49289;51.670;5.624;2023-02-20T08:19:52;102502.85;;;13.28;62.06
63194;BME280;49289;51.670;5.624;2023-02-20T08:21:39;102504.61;;;12.54;63.42
63194;BME280;49289;51.670;5.624;2023-02-20T08:23:27;102482.31;;;12.77;62.91
63194;BME280;49289;51.670;5.624;2023-02-20T08:25:16;102486.36;;;13.10;61.65
63194;BME280;49289;51.670;5.624;2023-02-20T08:27:04;102505.30;;;12.69;62.63
63194;BME280;49289;51.670;5.624;2023-02-20T08:28:52;102504.36;;;12.58;63.68
63194;BME280;49289;51.670;5.624;2023-02-20T08:30:40;102488.99;;;12.65;63.62
63194;BME280;49289;51.670;5.624;2023-02-20T08:32:28;102496.59;;;12.92;62.51
63194;BME280;49289;51.670;5.624;2023-02-20T08:34:18;102486.82;;;12.91;62.94
63194;BME280;49289;51.670;5.624;2023-02-20T08:36:06;102507.06;;;13.39;61.84
63194;BME280;49289;51.670;5.624;2023-02-20T08:37:54;102497.00;;;13.03;61.99
63194;BME280;49289;51.670;5.624;2023-02-20T08:39:41;102504.40;;;13.21;62.17
63194;BME280;49289;51.670;5.624;2023-02-20T08:41:28;102490.08;;;12.83;62.52
63194;BME280;49289;51.670;5.624;2023-02-20T08:43:15;102503.08;;;13.29;62.16
63194;BME280;49289;51.670;5.624;2023-02-20T08:45:02;102502.52;;;12.41;63.92
63194;BME280;49289;51.670;5.624;2023-02-20T08:46:52;102508.70;;;12.59;63.84
63194;BME280;49289;51.670;5.624;2023-02-20T08:48:39;102491.13;;;12.60;64.33
63194;BME280;49289;51.670;5.624;2023-02-20T08:50:26;102510.12;;;12.95;62.96
63194;BME280;49289;51.670;5.624;2023-02-20T08:52:13;102511.86;;;13.05;62.58
63194;BME280;49289;51.670;5.624;2023-02-20T08:54:00;102515.67;;;12.94;62.60
63194;BME280;49289;51.670;5.624;2023-02-20T08:55:47;102509.27;;;13.37;61.76
63194;BME280;49289;51.670;5.624;2023-02-20T08:57:34;102507.55;;;13.20;62.45
63194;BME280;49289;51.670;5.624;2023-02-20T08:59:21;102504.86;;;12.94;63.12
63194;BME280;49289;51.670;5.624;2023-02-20T09:01:08;102502.89;;;13.01;62.97
63194;BME280;49289;51.670;5.624;2023-02-20T09:02:55;102503.39;;;13.08;62.96
63194;BME280;49289;51.670;5.624;2023-02-20T09:04:42;102483.80;;;12.58;64.00
63194;BME280;49289;51.670;5.624;2023-02-20T09:06:29;102485.96;;;12.60;64.34
63194;BME280;49289;51.670;5.624;2023-02-20T09:08:18;102489.86;;;13.38;62.30
63194;BME280;49289;51.670;5.624;2023-02-20T09:10:07;102490.44;;;12.95;62.79
63194;BME280;49289;51.670;5.624;2023-02-20T09:11:54;102495.77;;;12.72;63.52
63194;BME280;49289;51.670;5.624;2023-02-20T09:13:46;102502.39;;;12.88;63.73
63194;BME280;49289;51.670;5.624;2023-02-20T09:15:33;102510.51;;;12.69;63.95
63194;BME280;49289;51.670;5.624;2023-02-20T09:17:21;102512.32;;;13.08;62.93
63194;BME280;49289;51.670;5.624;2023-02-20T09:19:10;102506.27;;;13.02;63.39
63194;BME280;49289;51.670;5.624;2023-02-20T09:20:57;102489.08;;;13.23;62.46
63194;BME280;49289;51.670;5.624;2023-02-20T09:22:44;102484.56;;;13.65;61.55
63194;BME280;49289;51.670;5.624;2023-02-20T09:24:31;102484.77;;;12.88;63.59
63194;BME280;49289;51.670;5.624;2023-02-20T09:26:18;102498.09;;;13.36;62.83
63194;BME280;49289;51.670;5.624;2023-02-20T09:28:05;102494.84;;;13.08;63.42
63194;BME280;49289;51.670;5.624;2023-02-20T09:29:53;102497.47;;;13.18;62.94